createdAt,value
2022-09-14T00:01:26.506Z,16.82
2022-09-14T00:03:55.223Z,16.82
2022-09-14T00:06:22.419Z,15.10
2022-09-14T00:08:54.223Z,17.04
2022-09-14T00:11:22.170Z,16.77
2022-09-14T00:13:49.530Z,16.78
2022-09-14T00:16:21.939Z,16.30
2022-09-14T00:18:57.406Z,15.27
2022-09-14T00:21:24.774Z,14.40
2022-09-14T00:23:51.712Z,16.48
2022-09-14T00:26:21.413Z,16.18
2022-09-14T00:28:50.482Z,15.35
2022-09-14T00:31:18.250Z,15.08
2022-09-14T00:33:48.025Z,15.49
2022-09-14T00:36:19.939Z,16.70
2022-09-14T00:38:47.746Z,16.14
2022-09-14T00:41:17.762Z,15.10
2022-09-14T00:44:10.868Z,15.92
2022-09-14T00:46:43.042Z,16.66
2022-09-14T00:49:27.820Z,16.66
2022-09-14T00:52:09.736Z,16.66
2022-09-14T00:54:41.944Z,16.05
2022-09-14T00:57:08.833Z,16.64
2022-09-14T00:59:37.311Z,16.64
2022-09-14T01:02:04.958Z,15.97
2022-09-14T01:04:32.037Z,15.93
2022-09-14T01:07:04.694Z,16.60
2022-09-14T01:09:38.293Z,16.56
2022-09-14T01:12:43.064Z,16.51
2022-09-14T01:15:32.109Z,16.50
2022-09-14T01:18:08.431Z,16.40
2022-09-14T01:24:18.845Z,16.32
2022-09-14T01:26:59.303Z,16.30
2022-09-14T01:33:32.640Z,15.99
2022-09-14T01:36:02.795Z,15.50
2022-09-14T01:38:36.148Z,14.89
2022-09-14T01:41:13.703Z,15.53
2022-09-14T01:44:06.845Z,16.08
2022-09-14T01:50:27.036Z,15.88
2022-09-14T01:53:27.068Z,16.02
2022-09-14T01:56:15.371Z,15.83
2022-09-14T01:58:46.011Z,15.27
2022-09-14T02:01:17.062Z,15.73
2022-09-14T02:03:48.359Z,15.71
2022-09-14T02:06:31.784Z,16.10
2022-09-14T02:09:00.235Z,14.78
2022-09-14T02:11:27.294Z,16.09
2022-09-14T02:13:54.203Z,16.03
2022-09-14T02:16:22.054Z,15.80
2022-09-14T02:18:49.781Z,15.71
2022-09-14T02:21:19.772Z,13.57
2022-09-14T02:23:49.125Z,15.54
2022-09-14T02:26:16.933Z,15.75
2022-09-14T02:28:44.136Z,15.21
2022-09-14T02:31:40.738Z,16.17
2022-09-14T02:34:26.486Z,16.15
2022-09-14T02:37:05.568Z,16.10
2022-09-14T02:39:53.807Z,16.03
2022-09-14T02:42:37.133Z,15.97
2022-09-14T02:45:29.981Z,15.95
2022-09-14T02:48:01.338Z,15.95
2022-09-14T02:50:45.103Z,15.17
2022-09-14T02:53:21.201Z,15.86
2022-09-14T02:55:54.781Z,14.32
2022-09-14T02:58:21.885Z,14.64
2022-09-14T03:00:50.825Z,15.51
2022-09-14T03:03:19.948Z,15.84
2022-09-14T03:05:47.737Z,15.22
2022-09-14T03:08:14.949Z,15.70
2022-09-14T03:10:43.632Z,14.91
2022-09-14T03:13:11.569Z,14.53
2022-09-14T03:15:38.971Z,15.46
2022-09-14T03:18:10.026Z,14.54
2022-09-14T03:20:39.368Z,15.02
2022-09-14T03:23:07.268Z,15.01
2022-09-14T03:25:40.537Z,15.39
2022-09-14T03:28:07.940Z,15.33
2022-09-14T03:30:34.828Z,12.24
2022-09-14T03:33:04.295Z,14.46
2022-09-14T03:35:31.900Z,12.32
2022-09-14T03:37:59.630Z,15.61
2022-09-14T03:40:27.430Z,15.25
2022-09-14T03:42:54.866Z,15.31
2022-09-14T03:45:22.049Z,15.50
2022-09-14T03:47:49.632Z,14.93
2022-09-14T03:50:17.921Z,11.85
2022-09-14T03:52:45.045Z,15.49
2022-09-14T03:55:12.012Z,15.46
2022-09-14T03:57:39.014Z,14.32
2022-09-14T04:00:07.023Z,15.15
2022-09-14T04:02:34.075Z,14.26
2022-09-14T04:05:01.031Z,14.64
2022-09-14T04:07:28.077Z,15.51
2022-09-14T04:09:55.971Z,14.87
2022-09-14T04:12:22.860Z,14.98
2022-09-14T04:14:50.559Z,15.40
2022-09-14T04:17:17.878Z,15.34
2022-09-14T04:19:44.831Z,15.08
2022-09-14T04:22:11.923Z,12.89
2022-09-14T04:24:38.849Z,13.08
2022-09-14T04:27:05.798Z,14.77
2022-09-14T04:29:32.844Z,12.59
2022-09-14T04:31:59.764Z,15.67
2022-09-14T04:34:27.210Z,13.80
2022-09-14T04:36:54.276Z,13.22
2022-09-14T04:39:21.730Z,14.45
2022-09-14T04:41:49.147Z,15.35
2022-09-14T04:44:16.174Z,14.65
2022-09-14T04:46:46.724Z,13.84
2022-09-14T04:49:19.062Z,13.36
2022-09-14T04:51:46.413Z,13.38
2022-09-14T04:54:15.073Z,15.51
2022-09-14T04:56:42.218Z,13.93
2022-09-14T04:59:09.672Z,12.62
2022-09-14T05:01:40.457Z,15.05
2022-09-14T05:04:08.750Z,15.78
2022-09-14T05:06:37.948Z,15.03
2022-09-14T05:09:06.578Z,15.61
2022-09-14T05:11:35.136Z,15.15
2022-09-14T05:14:02.401Z,14.31
2022-09-14T05:16:31.269Z,15.00
2022-09-14T05:19:01.486Z,15.57
2022-09-14T05:21:29.155Z,15.66
2022-09-14T05:23:58.039Z,15.47
2022-09-14T05:26:29.030Z,15.50
2022-09-14T05:28:57.562Z,15.59
2022-09-14T05:31:25.995Z,14.89
2022-09-14T05:33:53.388Z,15.46
2022-09-14T05:36:20.738Z,15.66
2022-09-14T05:38:47.758Z,15.88
2022-09-14T05:41:15.565Z,15.88
2022-09-14T05:43:42.642Z,15.15
2022-09-14T05:46:17.840Z,15.74
2022-09-14T05:48:44.817Z,13.89
2022-09-14T05:51:14.601Z,15.78
2022-09-14T05:53:41.589Z,15.92
2022-09-14T05:56:10.630Z,15.94
2022-09-14T05:58:38.394Z,13.31
2022-09-14T06:01:13.411Z,15.97
2022-09-14T06:03:41.098Z,14.60
2022-09-14T06:06:08.945Z,16.00
2022-09-14T06:08:36.429Z,15.26
2022-09-14T06:11:13.545Z,15.18
2022-09-14T06:13:40.673Z,16.07
2022-09-14T06:16:18.979Z,14.94
2022-09-14T06:18:46.749Z,15.09
2022-09-14T06:21:19.242Z,15.30
2022-09-14T06:23:47.904Z,14.53
2022-09-14T06:26:15.082Z,16.08
2022-09-14T06:28:45.282Z,14.12
2022-09-14T06:31:13.297Z,15.31
2022-09-14T06:33:46.697Z,12.39
2022-09-14T06:36:15.552Z,13.56
2022-09-14T06:38:42.959Z,16.06
2022-09-14T06:41:12.383Z,15.79
2022-09-14T06:43:40.771Z,16.23
2022-09-14T06:46:15.949Z,15.61
2022-09-14T06:48:50.813Z,15.71
2022-09-14T06:51:25.029Z,15.29
2022-09-14T06:53:52.942Z,15.54
2022-09-14T06:56:20.281Z,16.33
2022-09-14T06:58:47.562Z,16.29
2022-09-14T07:01:16.599Z,13.75
2022-09-14T07:03:44.088Z,13.41
2022-09-14T07:06:13.941Z,15.91
2022-09-14T07:08:41.145Z,15.75
2022-09-14T07:11:09.724Z,15.68
2022-09-14T07:13:36.817Z,15.86
2022-09-14T07:16:04.239Z,16.45
2022-09-14T07:18:34.297Z,15.19
2022-09-14T07:21:14.311Z,16.23
2022-09-14T07:23:43.113Z,15.56
2022-09-14T07:26:14.793Z,16.63
2022-09-14T07:28:42.311Z,15.63
2022-09-14T07:31:25.164Z,16.68
2022-09-14T07:33:58.166Z,16.72
2022-09-14T07:36:32.764Z,16.07
2022-09-14T07:39:02.074Z,16.24
2022-09-14T07:41:30.419Z,16.50
2022-09-14T07:44:00.457Z,14.45
2022-09-14T07:46:28.870Z,15.78
2022-09-14T07:48:57.287Z,16.92
2022-09-14T07:51:24.981Z,14.48
2022-09-14T07:53:52.089Z,14.98
2022-09-14T07:56:19.450Z,17.03
2022-09-14T07:58:46.443Z,16.83
2022-09-14T08:01:20.353Z,16.60
2022-09-14T08:03:49.161Z,16.44
2022-09-14T08:06:24.010Z,16.71
2022-09-14T08:08:51.930Z,15.95
2022-09-14T08:11:20.175Z,17.10
2022-09-14T08:13:50.737Z,17.14
2022-09-14T08:16:19.269Z,16.84
2022-09-14T08:18:46.762Z,17.11
2022-09-14T08:21:15.823Z,17.00
2022-09-14T08:23:43.420Z,17.05
2022-09-14T08:26:21.243Z,16.98
2022-09-14T08:28:49.014Z,15.94
2022-09-14T08:31:21.371Z,17.41
2022-09-14T08:33:57.285Z,17.49
2022-09-14T08:36:25.970Z,17.05
2022-09-14T08:38:53.051Z,15.27
2022-09-14T08:41:29.916Z,17.72
2022-09-14T08:44:11.507Z,17.57
2022-09-14T08:46:49.890Z,16.52
2022-09-14T08:49:51.942Z,16.77
2022-09-14T08:52:28.821Z,15.64
2022-09-14T08:54:57.860Z,17.82
2022-09-14T08:57:29.402Z,16.49
2022-09-14T09:00:13.510Z,17.83
2022-09-14T09:03:11.176Z,17.89
2022-09-14T09:05:53.868Z,17.95
2022-09-14T09:08:34.718Z,18.01
2022-09-14T09:11:01.854Z,16.73
2022-09-14T09:13:31.345Z,17.93
2022-09-14T09:16:00.361Z,17.09
2022-09-14T09:18:33.282Z,18.22
2022-09-14T09:21:04.508Z,17.77
2022-09-14T09:23:33.365Z,18.28
2022-09-14T09:26:09.773Z,18.32
2022-09-14T09:28:41.071Z,16.77
2022-09-14T09:31:12.690Z,17.65
2022-09-14T09:33:41.523Z,17.95
2022-09-14T09:36:09.063Z,18.21
2022-09-14T09:38:35.945Z,17.63
2022-09-14T09:41:14.935Z,18.08
2022-09-14T09:44:01.817Z,18.56
2022-09-14T09:46:36.011Z,18.04
2022-09-14T09:49:14.652Z,17.73
2022-09-14T09:51:41.592Z,17.47
2022-09-14T09:54:15.326Z,18.63
2022-09-14T09:57:01.253Z,18.63
2022-09-14T09:59:38.086Z,18.66
2022-09-14T10:02:30.798Z,18.67
2022-09-14T10:05:20.469Z,18.41
2022-09-14T10:07:50.335Z,18.75
2022-09-14T10:10:19.801Z,15.82
2022-09-14T10:12:49.120Z,16.54
2022-09-14T10:15:17.828Z,16.20
2022-09-14T10:18:09.052Z,18.93
2022-09-14T10:20:40.252Z,18.82
2022-09-14T10:23:19.310Z,19.03
2022-09-14T10:25:54.622Z,19.10
2022-09-14T10:28:28.770Z,19.14
2022-09-14T10:31:01.713Z,17.74
2022-09-14T10:33:29.298Z,19.09
2022-09-14T10:36:04.914Z,19.29
2022-09-14T10:38:59.188Z,18.89
2022-09-14T10:41:41.887Z,19.32
2022-09-14T10:44:32.006Z,19.36
2022-09-14T10:47:04.915Z,18.98
2022-09-14T10:49:58.143Z,19.45
2022-09-14T10:52:41.919Z,18.66
2022-09-14T10:55:37.043Z,19.57
2022-09-14T10:58:18.124Z,19.65
2022-09-14T11:01:13.547Z,19.06
2022-09-14T11:03:53.791Z,19.78
2022-09-14T11:06:33.225Z,19.46
2022-09-14T11:09:02.487Z,19.86
2022-09-14T11:11:35.326Z,19.93
2022-09-14T11:14:27.341Z,19.99
2022-09-14T11:17:16.388Z,18.81
2022-09-14T11:20:16.227Z,20.03
2022-09-14T11:23:07.580Z,20.05
2022-09-14T11:25:43.574Z,19.62
2022-09-14T11:28:19.473Z,19.51
2022-09-14T11:31:12.239Z,19.97
2022-09-14T11:33:49.130Z,20.13
2022-09-14T11:36:28.361Z,20.23
2022-09-14T11:39:08.636Z,20.23
2022-09-14T11:41:43.889Z,18.96
2022-09-14T11:44:27.114Z,19.74
2022-09-14T11:47:19.537Z,20.13
2022-09-14T11:50:20.372Z,19.65
2022-09-14T11:52:48.680Z,19.37
2022-09-14T11:55:16.977Z,19.87
2022-09-14T11:57:44.947Z,19.29
2022-09-14T12:00:24.162Z,20.29
2022-09-14T12:03:14.263Z,19.07
2022-09-14T12:05:44.607Z,19.69
2022-09-14T12:08:28.336Z,20.41
2022-09-14T12:11:10.630Z,20.47
2022-09-14T12:13:37.545Z,19.61
2022-09-14T12:16:08.743Z,20.11
2022-09-14T12:18:40.117Z,20.23
2022-09-14T12:21:16.110Z,19.96
2022-09-14T12:23:44.914Z,20.73
2022-09-14T12:26:15.618Z,20.83
2022-09-14T12:28:50.683Z,20.92
2022-09-14T12:31:32.044Z,20.39
2022-09-14T12:34:22.212Z,20.64
2022-09-14T12:36:49.229Z,21.04
2022-09-14T12:39:27.106Z,20.61
2022-09-14T12:41:53.984Z,21.15
2022-09-14T12:44:43.145Z,20.96
2022-09-14T12:47:25.947Z,21.09
2022-09-14T12:49:53.940Z,19.94
2022-09-14T12:52:25.974Z,20.32
2022-09-14T12:55:38.033Z,21.01
2022-09-14T12:58:33.114Z,20.93
2022-09-14T13:01:06.309Z,20.88
2022-09-14T13:03:51.061Z,20.20
2022-09-14T13:06:19.489Z,20.44
2022-09-14T13:08:48.922Z,20.47
2022-09-14T13:11:45.441Z,20.69
2022-09-14T13:14:19.600Z,20.46
2022-09-14T13:16:48.826Z,19.48
2022-09-14T13:19:27.451Z,20.69
2022-09-14T13:21:57.106Z,20.70
2022-09-14T13:24:27.219Z,20.72
2022-09-14T13:26:57.092Z,20.72
2022-09-14T13:29:26.993Z,20.00
2022-09-14T13:31:54.536Z,20.29
2022-09-14T13:34:29.376Z,20.43
2022-09-14T13:36:57.417Z,20.27
2022-09-14T13:39:30.854Z,20.72
2022-09-14T13:41:58.527Z,19.94
2022-09-14T13:44:31.911Z,20.27
2022-09-14T13:46:59.885Z,19.83
2022-09-14T13:49:27.048Z,20.80
2022-09-14T13:52:33.934Z,20.82
2022-09-14T13:55:18.722Z,20.84
2022-09-14T13:58:11.952Z,20.88
2022-09-14T14:00:58.526Z,20.70
2022-09-14T14:03:27.193Z,20.98
2022-09-14T14:05:54.191Z,21.00
2022-09-14T14:08:35.776Z,21.01
2022-09-14T14:11:06.925Z,20.28
2022-09-14T14:13:35.969Z,20.11
2022-09-14T14:16:23.158Z,20.34
2022-09-14T14:18:54.164Z,21.00
2022-09-14T14:21:27.986Z,21.01
2022-09-14T14:24:26.111Z,21.01
2022-09-14T14:26:55.718Z,19.87
2022-09-14T14:29:23.006Z,20.84
2022-09-14T14:31:50.208Z,21.02
2022-09-14T14:34:28.457Z,20.86
2022-09-14T14:36:56.161Z,21.06
2022-09-14T14:39:24.552Z,21.10
2022-09-14T14:41:51.661Z,21.00
2022-09-14T14:44:22.045Z,20.99
2022-09-14T14:46:49.212Z,21.12
2022-09-14T14:49:17.759Z,19.39
2022-09-14T14:51:44.700Z,21.11
2022-09-14T14:54:11.705Z,19.58
2022-09-14T14:56:38.833Z,20.58
2022-09-14T14:59:26.567Z,20.64
2022-09-14T15:01:54.089Z,20.10
2022-09-14T15:04:21.199Z,19.87
2022-09-14T15:06:49.101Z,20.31
2022-09-14T15:09:22.365Z,19.41
2022-09-14T15:11:50.647Z,20.63
2022-09-14T15:14:19.031Z,18.27
2022-09-14T15:16:46.153Z,20.50
2022-09-14T15:19:13.377Z,18.24
2022-09-14T15:21:41.476Z,20.13
2022-09-14T15:24:08.810Z,20.18
2022-09-14T15:26:36.004Z,20.11
2022-09-14T15:29:03.278Z,20.13
2022-09-14T15:31:30.783Z,19.47
2022-09-14T15:33:59.768Z,18.14
2022-09-14T15:36:37.330Z,18.61
2022-09-14T15:39:05.215Z,20.86
2022-09-14T15:41:32.181Z,19.57
2022-09-14T15:43:59.227Z,20.85
2022-09-14T15:46:26.610Z,19.91
2022-09-14T15:48:54.665Z,20.21
2022-09-14T15:51:21.649Z,19.82
2022-09-14T15:53:49.902Z,20.80
2022-09-14T15:56:16.976Z,20.32
2022-09-14T15:58:47.907Z,19.56
2022-09-14T16:01:17.866Z,20.60
2022-09-14T16:03:45.100Z,20.59
2022-09-14T16:06:13.257Z,19.37
2022-09-14T16:08:40.993Z,20.20
2022-09-14T16:11:08.840Z,20.05
2022-09-14T16:13:35.937Z,20.19
2022-09-14T16:16:13.348Z,20.75
2022-09-14T16:18:40.718Z,19.72
2022-09-14T16:21:22.442Z,19.78
2022-09-14T16:23:53.371Z,20.37
2022-09-14T16:26:27.126Z,19.17
2022-09-14T16:28:55.019Z,19.76
2022-09-14T16:31:27.771Z,20.26
2022-09-14T16:33:58.894Z,20.25
2022-09-14T16:36:31.431Z,20.20
2022-09-14T16:39:00.540Z,20.33
2022-09-14T16:41:28.254Z,20.40
2022-09-14T16:43:59.135Z,20.22
2022-09-14T16:46:30.176Z,20.24
2022-09-14T16:48:58.708Z,20.38
2022-09-14T16:51:28.198Z,20.11
2022-09-14T16:53:55.335Z,19.54
2022-09-14T16:56:28.403Z,20.28
2022-09-14T16:58:57.371Z,20.04
2022-09-14T17:01:29.220Z,20.13
2022-09-14T17:03:58.537Z,20.09
2022-09-14T17:06:30.533Z,19.95
2022-09-14T17:09:00.496Z,19.94
2022-09-14T17:11:29.705Z,19.38
2022-09-14T17:13:57.378Z,20.01
2022-09-14T17:16:26.214Z,20.04
2022-09-14T17:18:56.212Z,19.99
2022-09-14T17:21:26.082Z,19.54
2022-09-14T17:23:52.997Z,19.92
2022-09-14T17:26:21.046Z,20.09
2022-09-14T17:28:49.797Z,20.08
2022-09-14T17:31:19.830Z,19.87
2022-09-14T17:33:47.756Z,19.55
2022-09-14T17:36:15.566Z,18.89
2022-09-14T17:38:43.914Z,19.79
2022-09-14T17:41:20.342Z,19.68
2022-09-14T17:43:56.967Z,19.92
2022-09-14T17:46:24.712Z,19.37
2022-09-14T17:48:51.971Z,17.92
2022-09-14T17:51:21.208Z,18.27
2022-09-14T17:53:49.948Z,19.61
2022-09-14T17:56:19.769Z,19.71
2022-09-14T17:58:47.786Z,18.94
2022-09-14T18:01:17.021Z,18.21
2022-09-14T18:03:50.202Z,19.66
2022-09-14T18:06:17.657Z,19.64
2022-09-14T18:08:44.590Z,19.41
2022-09-14T18:11:16.562Z,18.14
2022-09-14T18:13:45.146Z,18.99
2022-09-14T18:16:12.914Z,19.30
2022-09-14T18:18:40.046Z,19.15
2022-09-14T18:21:07.220Z,18.05
2022-09-14T18:23:34.344Z,19.21
2022-09-14T18:26:02.185Z,19.56
2022-09-14T18:28:29.088Z,18.57
2022-09-14T18:31:03.930Z,18.84
2022-09-14T18:33:30.944Z,19.06
2022-09-14T18:35:57.894Z,19.03
2022-09-14T18:38:26.823Z,19.32
2022-09-14T18:40:53.726Z,18.87
2022-09-14T18:43:20.913Z,19.20
2022-09-14T18:45:47.905Z,19.10
2022-09-14T18:48:15.178Z,19.17
2022-09-14T18:50:42.523Z,18.10
2022-09-14T18:53:09.458Z,19.10
2022-09-14T18:55:36.468Z,16.41
2022-09-14T18:58:03.390Z,17.26
2022-09-14T19:00:30.418Z,19.20
2022-09-14T19:02:57.429Z,18.76
2022-09-14T19:05:27.347Z,16.49
2022-09-14T19:07:54.475Z,19.05
2022-09-14T19:10:21.795Z,18.87
2022-09-14T19:12:49.061Z,18.79
2022-09-14T19:15:16.211Z,18.11
2022-09-14T19:17:43.360Z,18.44
2022-09-14T19:20:11.382Z,18.41
2022-09-14T19:22:38.355Z,18.14
2022-09-14T19:25:06.341Z,18.02
2022-09-14T19:27:33.327Z,16.85
2022-09-14T19:30:01.317Z,18.22
2022-09-14T19:32:28.358Z,18.24
2022-09-14T19:34:56.072Z,18.53
2022-09-14T19:37:24.657Z,18.27
2022-09-14T19:39:51.799Z,16.90
2022-09-14T19:42:22.668Z,18.35
2022-09-14T19:44:51.241Z,16.88
2022-09-14T19:47:18.133Z,18.28
2022-09-14T19:49:45.057Z,17.44
2022-09-14T19:52:12.127Z,15.98
2022-09-14T19:54:39.128Z,17.97
2022-09-14T19:57:06.699Z,18.27
2022-09-14T19:59:33.682Z,17.91
2022-09-14T20:02:00.835Z,17.34
2022-09-14T20:04:28.014Z,18.18
2022-09-14T20:06:56.863Z,16.53
2022-09-14T20:09:24.211Z,17.54
2022-09-14T20:11:52.571Z,17.88
2022-09-14T20:14:22.950Z,17.54
2022-09-14T20:16:58.053Z,17.88
2022-09-14T20:19:29.523Z,18.03
2022-09-14T20:21:56.884Z,18.02
2022-09-14T20:24:27.160Z,17.48
2022-09-14T20:26:56.598Z,17.57
2022-09-14T20:29:24.747Z,18.00
2022-09-14T20:31:52.203Z,18.00
2022-09-14T20:34:20.773Z,16.59
2022-09-14T20:36:51.590Z,14.98
2022-09-14T20:39:19.865Z,17.75
2022-09-14T20:41:46.780Z,17.06
2022-09-14T20:44:13.980Z,17.11
2022-09-14T20:46:42.686Z,16.64
2022-09-14T20:49:12.500Z,17.42
2022-09-14T20:51:39.909Z,17.95
2022-09-14T20:54:07.336Z,17.81
2022-09-14T20:56:35.350Z,17.59
2022-09-14T20:59:03.953Z,17.32
2022-09-14T21:01:32.603Z,16.78
2022-09-14T21:04:20.417Z,17.82
2022-09-14T21:06:49.149Z,17.77
2022-09-14T21:09:18.232Z,17.77
2022-09-14T21:11:45.953Z,17.43
2022-09-14T21:14:13.983Z,16.85
2022-09-14T21:16:43.141Z,16.97
2022-09-14T21:19:16.022Z,17.06
2022-09-14T21:21:43.152Z,16.99
2022-09-14T21:24:12.077Z,17.24
2022-09-14T21:26:42.724Z,16.07
2022-09-14T21:29:14.460Z,16.22
2022-09-14T21:31:41.822Z,17.01
2022-09-14T21:34:10.328Z,16.93
2022-09-14T21:36:41.161Z,16.94
2022-09-14T21:39:11.122Z,17.23
2022-09-14T21:41:39.447Z,17.02
2022-09-14T21:44:06.704Z,17.12
2022-09-14T21:46:33.760Z,16.42
2022-09-14T21:49:00.818Z,17.40
2022-09-14T21:51:30.546Z,16.81
2022-09-14T21:54:02.267Z,16.51
2022-09-14T21:56:31.585Z,14.72
2022-09-14T21:59:03.101Z,17.39
2022-09-14T22:01:30.303Z,16.51
2022-09-14T22:03:57.509Z,16.28
2022-09-14T22:06:27.391Z,14.01
2022-09-14T22:08:54.928Z,16.54
2022-09-14T22:11:24.404Z,15.91
2022-09-14T22:13:56.695Z,16.97
2022-09-14T22:16:24.766Z,17.41
2022-09-14T22:18:54.006Z,17.40
2022-09-14T22:21:21.651Z,17.13
2022-09-14T22:23:50.190Z,17.42
2022-09-14T22:26:19.658Z,17.43
2022-09-14T22:28:48.027Z,17.08
2022-09-14T22:31:15.741Z,16.37
2022-09-14T22:33:42.776Z,17.45
2022-09-14T22:36:10.357Z,15.80
2022-09-14T22:38:37.272Z,16.83
2022-09-14T22:41:06.525Z,17.50
2022-09-14T22:43:34.390Z,17.10
2022-09-14T22:46:01.998Z,17.51
2022-09-14T22:48:29.067Z,16.97
2022-09-14T22:50:58.109Z,17.52
2022-09-14T22:53:25.933Z,16.43
2022-09-14T22:55:52.804Z,16.94
2022-09-14T22:58:21.015Z,17.55
2022-09-14T23:00:48.076Z,16.84
2022-09-14T23:03:15.862Z,17.01
2022-09-14T23:06:09.148Z,17.12
2022-09-14T23:08:36.688Z,17.51
2022-09-14T23:11:08.997Z,17.02
2022-09-14T23:13:36.356Z,16.66
2022-09-14T23:16:10.421Z,17.15
2022-09-14T23:18:37.568Z,16.83
2022-09-14T23:21:04.653Z,16.56
2022-09-14T23:23:31.689Z,16.81
2022-09-14T23:26:07.102Z,16.35
2022-09-14T23:28:34.231Z,16.81
2022-09-14T23:31:01.299Z,17.56
2022-09-14T23:33:28.950Z,16.82
2022-09-14T23:35:56.187Z,15.74
2022-09-14T23:38:23.613Z,16.31
2022-09-14T23:40:50.638Z,17.54
2022-09-14T23:43:17.941Z,17.07
2022-09-14T23:45:45.656Z,17.17
2022-09-14T23:48:13.165Z,17.51
2022-09-14T23:50:40.577Z,17.35
2022-09-14T23:53:07.604Z,15.04
2022-09-14T23:55:34.654Z,16.89
2022-09-14T23:58:01.569Z,17.32
